RYR6TA LOWW-LIPZ
Flight info
| Callsign | RYR6TA |
|---|---|
| Flight time | 0h 55m |
| Altitude | 30000 |
| Route | RUPET DCT GRZ DCT RADLY DCT OGODI DCT RIFEN DCT BADOP DCT ROSKA P125 TULIK Z71 BASOG |
| Aircraft | B738/M-SDE2E3FGHIRWXY/LB1 |
Departure
| Time | 2026-04-20 20:21 |
|---|---|
| Airport | Vienna International Airport (LOWW) |
Arrival
| Time | 2026-04-20 21:17 |
|---|---|
| Airport | Venice Marco Polo Airport (LIPZ) |
| Time | Latitude | Longitude | Altitude | Speed | Heading |
|---|---|---|---|---|---|
| 2026-04-20 20:00 | 48.12167 | 16.55382 | 580 ft | 0 kts | 296° |
| 2026-04-20 20:14 | 48.12175 | 16.55354 | 580 ft | 4 kts | 294° |
| 2026-04-20 20:14 | 48.12169 | 16.55310 | 580 ft | 4 kts | 232° |
| 2026-04-20 20:14 | 48.12144 | 16.55282 | 581 ft | 4 kts | 210° |
| 2026-04-20 20:14 | 48.12116 | 16.55260 | 581 ft | 4 kts | 207° |
| 2026-04-20 20:15 | 48.12089 | 16.55242 | 582 ft | 4 kts | 203° |
| 2026-04-20 20:15 | 48.12061 | 16.55224 | 582 ft | 5 kts | 205° |
| 2026-04-20 20:15 | 48.12017 | 16.55192 | 583 ft | 8 kts | 206° |
| 2026-04-20 20:15 | 48.11984 | 16.55179 | 583 ft | 7 kts | 174° |
| 2026-04-20 20:16 | 48.11920 | 16.55184 | 584 ft | 9 kts | 185° |
| 2026-04-20 20:16 | 48.11861 | 16.55271 | 583 ft | 13 kts | 117° |
| 2026-04-20 20:16 | 48.11847 | 16.55313 | 583 ft | 13 kts | 115° |
| 2026-04-20 20:17 | 48.11730 | 16.55674 | 583 ft | 15 kts | 116° |
| 2026-04-20 20:17 | 48.11681 | 16.55825 | 584 ft | 16 kts | 116° |
| 2026-04-20 20:17 | 48.11648 | 16.55928 | 585 ft | 16 kts | 116° |
| 2026-04-20 20:17 | 48.11586 | 16.56117 | 589 ft | 14 kts | 116° |
| 2026-04-20 20:18 | 48.11543 | 16.56251 | 592 ft | 15 kts | 116° |
| 2026-04-20 20:18 | 48.11496 | 16.56396 | 596 ft | 14 kts | 116° |
| 2026-04-20 20:18 | 48.11457 | 16.56513 | 600 ft | 11 kts | 116° |
| 2026-04-20 20:18 | 48.11424 | 16.56616 | 602 ft | 15 kts | 116° |
| 2026-04-20 20:19 | 48.11368 | 16.56787 | 603 ft | 21 kts | 116° |
| 2026-04-20 20:19 | 48.11300 | 16.56996 | 606 ft | 23 kts | 116° |
| 2026-04-20 20:19 | 48.11238 | 16.57188 | 605 ft | 12 kts | 116° |
| 2026-04-20 20:19 | 48.11182 | 16.57223 | 604 ft | 9 kts | 196° |
| 2026-04-20 20:20 | 48.11110 | 16.57183 | 604 ft | 11 kts | 205° |
| 2026-04-20 20:20 | 48.11053 | 16.57123 | 606 ft | 7 kts | 262° |
| 2026-04-20 20:20 | 48.11088 | 16.57001 | 605 ft | 33 kts | 296° |
| 2026-04-20 20:20 | 48.11296 | 16.56365 | 595 ft | 101 kts | 296° |
| 2026-04-20 20:21 | 48.11690 | 16.55153 | 585 ft | 155 kts | 297° |
| 2026-04-20 20:21 | 48.12183 | 16.53647 | 1035 ft | 162 kts | 298° |
| 2026-04-20 20:21 | 48.12510 | 16.52094 | 1732 ft | 162 kts | 271° |
| 2026-04-20 20:21 | 48.12109 | 16.50466 | 2202 ft | 178 kts | 238° |
| 2026-04-20 20:22 | 48.11214 | 16.49108 | 2572 ft | 196 kts | 212° |
| 2026-04-20 20:22 | 48.09893 | 16.48356 | 2964 ft | 211 kts | 201° |
| 2026-04-20 20:22 | 48.08446 | 16.47623 | 3276 ft | 230 kts | 203° |
| 2026-04-20 20:22 | 48.07039 | 16.46464 | 3844 ft | 233 kts | 223° |
| 2026-04-20 20:23 | 48.05814 | 16.44831 | 4290 ft | 245 kts | 226° |
| 2026-04-20 20:23 | 48.04520 | 16.43083 | 4764 ft | 257 kts | 225° |
| 2026-04-20 20:23 | 48.03142 | 16.41271 | 5219 ft | 270 kts | 225° |
| 2026-04-20 20:23 | 48.01734 | 16.39433 | 5901 ft | 273 kts | 225° |
| 2026-04-20 20:24 | 48.00309 | 16.37577 | 6666 ft | 273 kts | 225° |
| 2026-04-20 20:24 | 47.98888 | 16.35725 | 7430 ft | 274 kts | 226° |
| 2026-04-20 20:24 | 47.97456 | 16.33858 | 8154 ft | 277 kts | 225° |
| 2026-04-20 20:24 | 47.96006 | 16.31977 | 8986 ft | 277 kts | 226° |
| 2026-04-20 20:25 | 47.94519 | 16.30156 | 9796 ft | 278 kts | 224° |
| 2026-04-20 20:25 | 47.93010 | 16.28365 | 10459 ft | 284 kts | 224° |
| 2026-04-20 20:25 | 47.91476 | 16.26534 | 10875 ft | 299 kts | 224° |
| 2026-04-20 20:25 | 47.89821 | 16.24556 | 11348 ft | 313 kts | 224° |
| 2026-04-20 20:26 | 47.88093 | 16.22493 | 11779 ft | 327 kts | 224° |
| 2026-04-20 20:26 | 47.86309 | 16.20370 | 12448 ft | 333 kts | 224° |
| 2026-04-20 20:26 | 47.84477 | 16.18195 | 13229 ft | 337 kts | 223° |
| 2026-04-20 20:26 | 47.82649 | 16.16024 | 14049 ft | 338 kts | 224° |
| 2026-04-20 20:27 | 47.80818 | 16.13849 | 14861 ft | 342 kts | 224° |
| 2026-04-20 20:27 | 47.78962 | 16.11644 | 15640 ft | 346 kts | 224° |
| 2026-04-20 20:27 | 47.77089 | 16.09420 | 16401 ft | 349 kts | 224° |
| 2026-04-20 20:27 | 47.75185 | 16.07162 | 17129 ft | 353 kts | 224° |
| 2026-04-20 20:28 | 47.73261 | 16.04887 | 17930 ft | 354 kts | 224° |
| 2026-04-20 20:28 | 47.71330 | 16.02605 | 18678 ft | 356 kts | 224° |
| 2026-04-20 20:28 | 47.69413 | 16.00338 | 19299 ft | 360 kts | 224° |
| 2026-04-20 20:28 | 47.67440 | 15.98008 | 20023 ft | 362 kts | 224° |
| 2026-04-20 20:29 | 47.66139 | 15.96477 | 20492 ft | 362 kts | 225° |
| 2026-04-20 20:29 | 47.63507 | 15.93375 | 21341 ft | 366 kts | 225° |
| 2026-04-20 20:29 | 47.61499 | 15.91010 | 22056 ft | 366 kts | 226° |
| 2026-04-20 20:29 | 47.59526 | 15.88691 | 22605 ft | 370 kts | 225° |
| 2026-04-20 20:30 | 47.57502 | 15.86314 | 23243 ft | 371 kts | 227° |
| 2026-04-20 20:30 | 47.55479 | 15.83938 | 23882 ft | 371 kts | 226° |
| 2026-04-20 20:30 | 47.53467 | 15.81577 | 24342 ft | 376 kts | 227° |
| 2026-04-20 20:30 | 47.51433 | 15.79174 | 24937 ft | 375 kts | 227° |
| 2026-04-20 20:31 | 47.49411 | 15.76780 | 25511 ft | 376 kts | 227° |
| 2026-04-20 20:31 | 47.47311 | 15.74460 | 26163 ft | 378 kts | 223° |
| 2026-04-20 20:31 | 47.45016 | 15.72562 | 26783 ft | 384 kts | 215° |
| 2026-04-20 20:31 | 47.42527 | 15.71002 | 27248 ft | 390 kts | 211° |
| 2026-04-20 20:32 | 47.40002 | 15.69585 | 27844 ft | 389 kts | 211° |
| 2026-04-20 20:32 | 47.37501 | 15.68203 | 28320 ft | 389 kts | 211° |
| 2026-04-20 20:32 | 47.34997 | 15.66818 | 28953 ft | 385 kts | 211° |
| 2026-04-20 20:32 | 47.32494 | 15.65427 | 29396 ft | 385 kts | 212° |
| 2026-04-20 20:33 | 47.29954 | 15.64003 | 29728 ft | 388 kts | 212° |
| 2026-04-20 20:33 | 47.27435 | 15.62597 | 29985 ft | 392 kts | 211° |
| 2026-04-20 20:33 | 47.22375 | 15.59797 | 30029 ft | 387 kts | 211° |
| 2026-04-20 20:34 | 47.17369 | 15.57030 | 30049 ft | 386 kts | 211° |
| 2026-04-20 20:34 | 47.14831 | 15.55613 | 30222 ft | 393 kts | 212° |
| 2026-04-20 20:34 | 47.12247 | 15.54173 | 30516 ft | 397 kts | 211° |
| 2026-04-20 20:35 | 47.09683 | 15.52762 | 30943 ft | 395 kts | 211° |
| 2026-04-20 20:35 | 47.07984 | 15.51826 | 31013 ft | 398 kts | 211° |
| 2026-04-20 20:36 | 46.94015 | 15.43893 | 31052 ft | 386 kts | 217° |
| 2026-04-20 20:36 | 46.91636 | 15.42063 | 31041 ft | 382 kts | 219° |
| 2026-04-20 20:37 | 46.87006 | 15.38368 | 31052 ft | 382 kts | 219° |
| 2026-04-20 20:37 | 46.82321 | 15.34675 | 31038 ft | 380 kts | 218° |
| 2026-04-20 20:38 | 46.77637 | 15.31011 | 31044 ft | 387 kts | 218° |
| 2026-04-20 20:38 | 46.72918 | 15.27344 | 31032 ft | 380 kts | 218° |
| 2026-04-20 20:39 | 46.68250 | 15.23699 | 31034 ft | 384 kts | 219° |
| 2026-04-20 20:39 | 46.66032 | 15.21608 | 31014 ft | 373 kts | 226° |
| 2026-04-20 20:39 | 46.64099 | 15.19200 | 31014 ft | 363 kts | 234° |
| 2026-04-20 20:40 | 46.60965 | 15.13586 | 30991 ft | 357 kts | 242° |
| 2026-04-20 20:40 | 46.58060 | 15.07748 | 30991 ft | 356 kts | 242° |
| 2026-04-20 20:41 | 46.55165 | 15.01973 | 30986 ft | 354 kts | 242° |
| 2026-04-20 20:41 | 46.52234 | 14.96156 | 30987 ft | 356 kts | 242° |
| 2026-04-20 20:42 | 46.49320 | 14.90394 | 30979 ft | 356 kts | 242° |
| 2026-04-20 20:42 | 46.46402 | 14.84619 | 30974 ft | 357 kts | 242° |
| 2026-04-20 20:43 | 46.43479 | 14.78851 | 30986 ft | 356 kts | 242° |
| 2026-04-20 20:43 | 46.40563 | 14.73104 | 30978 ft | 355 kts | 242° |
| 2026-04-20 20:44 | 46.37619 | 14.67310 | 30998 ft | 356 kts | 242° |
| 2026-04-20 20:44 | 46.34689 | 14.61546 | 30993 ft | 357 kts | 241° |
| 2026-04-20 20:45 | 46.31749 | 14.55807 | 31003 ft | 356 kts | 242° |
| 2026-04-20 20:45 | 46.28793 | 14.50022 | 31011 ft | 357 kts | 242° |
| 2026-04-20 20:46 | 46.26346 | 14.45258 | 31022 ft | 357 kts | 241° |
| 2026-04-20 20:46 | 46.22892 | 14.38555 | 31023 ft | 355 kts | 242° |
| 2026-04-20 20:47 | 46.19939 | 14.32814 | 31018 ft | 358 kts | 240° |
| 2026-04-20 20:47 | 46.16983 | 14.27087 | 31003 ft | 358 kts | 241° |
| 2026-04-20 20:48 | 46.14007 | 14.21335 | 31004 ft | 358 kts | 241° |
| 2026-04-20 20:48 | 46.11026 | 14.15585 | 30997 ft | 355 kts | 240° |
| 2026-04-20 20:49 | 46.08076 | 14.09910 | 30986 ft | 359 kts | 240° |
| 2026-04-20 20:49 | 46.05087 | 14.04170 | 30980 ft | 356 kts | 241° |
| 2026-04-20 20:50 | 46.02111 | 13.98464 | 30974 ft | 357 kts | 241° |
| 2026-04-20 20:50 | 45.99137 | 13.92771 | 30968 ft | 358 kts | 240° |
| 2026-04-20 20:51 | 45.96483 | 13.86864 | 30956 ft | 343 kts | 258° |
| 2026-04-20 20:51 | 45.94841 | 13.80462 | 30971 ft | 352 kts | 246° |
| 2026-04-20 20:52 | 45.91814 | 13.74841 | 30964 ft | 359 kts | 237° |
| 2026-04-20 20:52 | 45.88497 | 13.69495 | 30963 ft | 358 kts | 237° |
| 2026-04-20 20:53 | 45.85267 | 13.64241 | 30566 ft | 344 kts | 237° |
| 2026-04-20 20:53 | 45.83725 | 13.61710 | 30126 ft | 340 kts | 238° |
| 2026-04-20 20:53 | 45.82168 | 13.59149 | 29674 ft | 337 kts | 237° |
| 2026-04-20 20:54 | 45.80653 | 13.56656 | 29227 ft | 333 kts | 237° |
| 2026-04-20 20:54 | 45.79229 | 13.54309 | 28815 ft | 330 kts | 237° |
| 2026-04-20 20:54 | 45.77735 | 13.51846 | 28380 ft | 328 kts | 237° |
| 2026-04-20 20:54 | 45.76243 | 13.49385 | 27947 ft | 331 kts | 237° |
| 2026-04-20 20:55 | 45.74735 | 13.46887 | 27490 ft | 334 kts | 237° |
| 2026-04-20 20:55 | 45.73205 | 13.44374 | 27030 ft | 334 kts | 236° |
| 2026-04-20 20:55 | 45.71677 | 13.41877 | 26579 ft | 331 kts | 236° |
| 2026-04-20 20:55 | 45.70173 | 13.39419 | 26133 ft | 328 kts | 236° |
| 2026-04-20 20:56 | 45.68684 | 13.36983 | 25694 ft | 325 kts | 236° |
| 2026-04-20 20:56 | 45.67214 | 13.34579 | 25259 ft | 323 kts | 235° |
| 2026-04-20 20:56 | 45.65752 | 13.32193 | 24836 ft | 321 kts | 235° |
| 2026-04-20 20:56 | 45.64274 | 13.29778 | 24396 ft | 319 kts | 235° |
| 2026-04-20 20:57 | 45.62836 | 13.27430 | 23979 ft | 317 kts | 235° |
| 2026-04-20 20:57 | 45.61397 | 13.25083 | 23558 ft | 315 kts | 235° |
| 2026-04-20 20:57 | 45.59951 | 13.22726 | 23126 ft | 313 kts | 235° |
| 2026-04-20 20:57 | 45.58530 | 13.20412 | 22708 ft | 311 kts | 234° |
| 2026-04-20 20:58 | 45.57109 | 13.18098 | 22291 ft | 310 kts | 234° |
| 2026-04-20 20:58 | 45.55709 | 13.15821 | 21883 ft | 308 kts | 234° |
| 2026-04-20 20:58 | 45.54297 | 13.13527 | 21475 ft | 306 kts | 234° |
| 2026-04-20 20:58 | 45.52895 | 13.11253 | 21054 ft | 305 kts | 234° |
| 2026-04-20 20:59 | 45.51496 | 13.08984 | 20642 ft | 306 kts | 234° |
| 2026-04-20 20:59 | 45.50103 | 13.06724 | 20224 ft | 309 kts | 233° |
| 2026-04-20 20:59 | 45.48677 | 13.04414 | 19810 ft | 310 kts | 233° |
| 2026-04-20 20:59 | 45.47266 | 13.02133 | 19396 ft | 309 kts | 233° |
| 2026-04-20 21:00 | 45.45849 | 12.99853 | 18967 ft | 308 kts | 232° |
| 2026-04-20 21:00 | 45.44418 | 12.97604 | 18542 ft | 307 kts | 232° |
| 2026-04-20 21:00 | 45.42977 | 12.95363 | 18142 ft | 305 kts | 232° |
| 2026-04-20 21:00 | 45.41555 | 12.93148 | 17744 ft | 304 kts | 232° |
| 2026-04-20 21:01 | 45.40149 | 12.90959 | 17341 ft | 303 kts | 232° |
| 2026-04-20 21:01 | 45.38721 | 12.88736 | 16943 ft | 302 kts | 232° |
| 2026-04-20 21:01 | 45.37314 | 12.86545 | 16535 ft | 300 kts | 232° |
| 2026-04-20 21:01 | 45.35919 | 12.84374 | 16140 ft | 299 kts | 231° |
| 2026-04-20 21:02 | 45.34513 | 12.82191 | 15740 ft | 298 kts | 231° |
| 2026-04-20 21:02 | 45.33120 | 12.80028 | 15344 ft | 297 kts | 231° |
| 2026-04-20 21:02 | 45.31739 | 12.77885 | 14952 ft | 296 kts | 231° |
| 2026-04-20 21:02 | 45.30350 | 12.75731 | 14556 ft | 296 kts | 231° |
| 2026-04-20 21:03 | 45.28959 | 12.73576 | 14160 ft | 295 kts | 231° |
| 2026-04-20 21:03 | 45.27581 | 12.71443 | 13775 ft | 293 kts | 231° |
| 2026-04-20 21:03 | 45.26212 | 12.69325 | 13386 ft | 293 kts | 231° |
| 2026-04-20 21:03 | 45.24852 | 12.67224 | 13004 ft | 292 kts | 231° |
| 2026-04-20 21:04 | 45.23484 | 12.65111 | 12610 ft | 290 kts | 231° |
| 2026-04-20 21:04 | 45.22120 | 12.63006 | 12220 ft | 288 kts | 231° |
| 2026-04-20 21:04 | 45.20772 | 12.60927 | 11841 ft | 286 kts | 231° |
| 2026-04-20 21:04 | 45.19441 | 12.58876 | 11467 ft | 284 kts | 231° |
| 2026-04-20 21:05 | 45.18097 | 12.56805 | 11090 ft | 283 kts | 231° |
| 2026-04-20 21:05 | 45.16785 | 12.54787 | 10713 ft | 281 kts | 231° |
| 2026-04-20 21:05 | 45.15455 | 12.52735 | 10336 ft | 279 kts | 232° |
| 2026-04-20 21:05 | 45.14408 | 12.50486 | 9982 ft | 273 kts | 251° |
| 2026-04-20 21:06 | 45.14059 | 12.47947 | 9914 ft | 257 kts | 270° |
| 2026-04-20 21:06 | 45.14247 | 12.45469 | 9440 ft | 259 kts | 287° |
| 2026-04-20 21:06 | 45.14848 | 12.43083 | 9025 ft | 260 kts | 292° |
| 2026-04-20 21:06 | 45.15291 | 12.41485 | 8777 ft | 259 kts | 291° |
| 2026-04-20 21:07 | 45.16138 | 12.38339 | 8323 ft | 256 kts | 291° |
| 2026-04-20 21:07 | 45.16761 | 12.35979 | 7978 ft | 255 kts | 291° |
| 2026-04-20 21:07 | 45.17373 | 12.33651 | 7649 ft | 253 kts | 290° |
| 2026-04-20 21:07 | 45.17983 | 12.31324 | 7312 ft | 252 kts | 290° |
| 2026-04-20 21:08 | 45.18587 | 12.29017 | 6979 ft | 251 kts | 290° |
| 2026-04-20 21:08 | 45.19191 | 12.26710 | 6640 ft | 249 kts | 292° |
| 2026-04-20 21:08 | 45.19967 | 12.24518 | 6311 ft | 252 kts | 301° |
| 2026-04-20 21:08 | 45.20901 | 12.22375 | 5969 ft | 254 kts | 302° |
| 2026-04-20 21:09 | 45.21822 | 12.20251 | 5633 ft | 253 kts | 302° |
| 2026-04-20 21:09 | 45.22723 | 12.18144 | 5341 ft | 249 kts | 302° |
| 2026-04-20 21:09 | 45.23609 | 12.16062 | 5032 ft | 247 kts | 302° |
| 2026-04-20 21:09 | 45.24498 | 12.13972 | 4796 ft | 242 kts | 302° |
| 2026-04-20 21:10 | 45.25346 | 12.11974 | 4708 ft | 232 kts | 302° |
| 2026-04-20 21:10 | 45.26259 | 12.10174 | 4633 ft | 219 kts | 319° |
| 2026-04-20 21:10 | 45.27522 | 12.09147 | 4585 ft | 203 kts | 346° |
| 2026-04-20 21:10 | 45.28867 | 12.08978 | 4432 ft | 193 kts | 11° |
| 2026-04-20 21:11 | 45.30047 | 12.09815 | 4191 ft | 187 kts | 37° |
| 2026-04-20 21:11 | 45.31092 | 12.10894 | 4048 ft | 184 kts | 33° |
| 2026-04-20 21:11 | 45.32140 | 12.11914 | 3917 ft | 185 kts | 38° |
| 2026-04-20 21:11 | 45.33138 | 12.13067 | 3787 ft | 185 kts | 41° |
| 2026-04-20 21:12 | 45.34114 | 12.14273 | 3641 ft | 184 kts | 41° |
| 2026-04-20 21:12 | 45.35070 | 12.15476 | 3464 ft | 183 kts | 42° |
| 2026-04-20 21:12 | 45.36004 | 12.16661 | 3289 ft | 175 kts | 42° |
| 2026-04-20 21:12 | 45.36886 | 12.17783 | 3144 ft | 166 kts | 43° |
| 2026-04-20 21:13 | 45.37726 | 12.18852 | 3045 ft | 160 kts | 43° |
| 2026-04-20 21:13 | 45.38570 | 12.19928 | 2940 ft | 165 kts | 42° |
| 2026-04-20 21:13 | 45.39434 | 12.21027 | 2654 ft | 168 kts | 43° |
| 2026-04-20 21:13 | 45.40282 | 12.22108 | 2432 ft | 163 kts | 43° |
| 2026-04-20 21:14 | 45.41110 | 12.23164 | 2217 ft | 160 kts | 43° |
| 2026-04-20 21:14 | 45.41938 | 12.24221 | 1997 ft | 159 kts | 43° |
| 2026-04-20 21:14 | 45.42759 | 12.25270 | 1785 ft | 158 kts | 44° |
| 2026-04-20 21:14 | 45.43576 | 12.26313 | 1569 ft | 157 kts | 44° |
| 2026-04-20 21:15 | 45.44355 | 12.27308 | 1336 ft | 148 kts | 44° |
| 2026-04-20 21:15 | 45.45082 | 12.28236 | 1190 ft | 137 kts | 43° |
| 2026-04-20 21:15 | 45.45799 | 12.29155 | 1003 ft | 142 kts | 43° |
| 2026-04-20 21:15 | 45.46550 | 12.30114 | 881 ft | 143 kts | 43° |
| 2026-04-20 21:16 | 45.47301 | 12.31066 | 631 ft | 147 kts | 44° |
| 2026-04-20 21:16 | 45.48056 | 12.32042 | 415 ft | 147 kts | 44° |
| 2026-04-20 21:16 | 45.48803 | 12.33000 | 211 ft | 144 kts | 43° |
| 2026-04-20 21:16 | 45.49544 | 12.33941 | 15 ft | 137 kts | 44° |
| 2026-04-20 21:17 | 45.50095 | 12.34648 | 9 ft | 67 kts | 42° |
| 2026-04-20 21:17 | 45.50370 | 12.35004 | 9 ft | 21 kts | 35° |
| 2026-04-20 21:17 | 45.50459 | 12.35047 | 9 ft | 12 kts | 10° |
| 2026-04-20 21:17 | 45.50544 | 12.35068 | 9 ft | 11 kts | 7° |
| 2026-04-20 21:18 | 45.50613 | 12.35055 | 9 ft | 9 kts | 315° |
| 2026-04-20 21:18 | 45.50617 | 12.34979 | 9 ft | 9 kts | 259° |
| 2026-04-20 21:18 | 45.50610 | 12.34857 | 7 ft | 14 kts | 266° |
| 2026-04-20 21:18 | 45.50637 | 12.34734 | 7 ft | 13 kts | 310° |
| 2026-04-20 21:19 | 45.50703 | 12.34630 | 6 ft | 14 kts | 313° |
| 2026-04-20 21:19 | 45.50734 | 12.34546 | 6 ft | 8 kts | 246° |
| 2026-04-20 21:19 | 45.50702 | 12.34496 | 6 ft | 3 kts | 220° |